sensor_id;sensor_type;location;lat;lon;timestamp;temperature;humidity
17066;DHT22;23120;52.336;21.182;2023-02-15T00:01:05;1.80;99.90
17066;DHT22;23120;52.336;21.182;2023-02-15T00:03:32;1.80;99.90
17066;DHT22;23120;52.336;21.182;2023-02-15T00:06:01;1.90;99.90
17066;DHT22;23120;52.336;21.182;2023-02-15T00:08:28;1.80;99.90
17066;DHT22;23120;52.336;21.182;2023-02-15T00:11:03;1.90;99.90
17066;DHT22;23120;52.336;21.182;2023-02-15T00:13:31;1.90;99.90
17066;DHT22;23120;52.336;21.182;2023-02-15T00:16:01;1.90;99.90
17066;DHT22;23120;52.336;21.182;2023-02-15T00:18:27;1.90;99.90
17066;DHT22;23120;52.336;21.182;2023-02-15T00:20:54;1.90;99.90
17066;DHT22;23120;52.336;21.182;2023-02-15T00:23:23;1.90;99.90
17066;DHT22;23120;52.336;21.182;2023-02-15T00:25:50;2.00;99.90
17066;DHT22;23120;52.336;21.182;2023-02-15T00:28:16;2.00;99.90
17066;DHT22;23120;52.336;21.182;2023-02-15T00:30:43;2.00;99.90
17066;DHT22;23120;52.336;21.182;2023-02-15T00:33:10;2.00;99.90
17066;DHT22;23120;52.336;21.182;2023-02-15T00:35:39;2.00;99.90
17066;DHT22;23120;52.336;21.182;2023-02-15T00:38:06;2.00;99.90
17066;DHT22;23120;52.336;21.182;2023-02-15T00:40:34;2.00;99.90
17066;DHT22;23120;52.336;21.182;2023-02-15T00:43:01;2.20;99.90
17066;DHT22;23120;52.336;21.182;2023-02-15T00:45:28;2.10;99.90
17066;DHT22;23120;52.336;21.182;2023-02-15T00:47:55;2.10;99.90
17066;DHT22;23120;52.336;21.182;2023-02-15T00:50:22;2.10;99.90
17066;DHT22;23120;52.336;21.182;2023-02-15T00:52:48;2.10;99.90
17066;DHT22;23120;52.336;21.182;2023-02-15T00:55:16;2.10;99.90
17066;DHT22;23120;52.336;21.182;2023-02-15T00:57:44;2.10;99.90
17066;DHT22;23120;52.336;21.182;2023-02-15T01:00:12;2.20;99.90
17066;DHT22;23120;52.336;21.182;2023-02-15T01:02:39;2.20;99.90
17066;DHT22;23120;52.336;21.182;2023-02-15T01:05:06;2.20;99.90
17066;DHT22;23120;52.336;21.182;2023-02-15T01:07:33;2.20;99.90
17066;DHT22;23120;52.336;21.182;2023-02-15T01:10:00;2.20;99.90
17066;DHT22;23120;52.336;21.182;2023-02-15T01:12:27;2.20;99.90
17066;DHT22;23120;52.336;21.182;2023-02-15T01:14:55;2.20;99.90
17066;DHT22;23120;52.336;21.182;2023-02-15T01:17:22;2.20;99.90
17066;DHT22;23120;52.336;21.182;2023-02-15T01:19:48;2.30;99.90
17066;DHT22;23120;52.336;21.182;2023-02-15T01:22:18;2.30;99.90
17066;DHT22;23120;52.336;21.182;2023-02-15T01:24:45;2.30;99.90
17066;DHT22;23120;52.336;21.182;2023-02-15T01:27:12;2.30;99.90
17066;DHT22;23120;52.336;21.182;2023-02-15T01:29:38;2.30;99.90
17066;DHT22;23120;52.336;21.182;2023-02-15T01:32:06;2.30;99.90
17066;DHT22;23120;52.336;21.182;2023-02-15T01:34:34;2.30;99.90
17066;DHT22;23120;52.336;21.182;2023-02-15T01:37:00;2.30;99.90
17066;DHT22;23120;52.336;21.182;2023-02-15T01:39:27;2.30;99.90
17066;DHT22;23120;52.336;21.182;2023-02-15T01:41:55;2.30;99.90
17066;DHT22;23120;52.336;21.182;2023-02-15T01:44:48;2.30;99.90
17066;DHT22;23120;52.336;21.182;2023-02-15T01:47:22;2.40;99.90
17066;DHT22;23120;52.336;21.182;2023-02-15T01:50:00;2.40;99.90
17066;DHT22;23120;52.336;21.182;2023-02-15T01:52:29;2.40;99.90
17066;DHT22;23120;52.336;21.182;2023-02-15T01:54:56;2.40;99.90
17066;DHT22;23120;52.336;21.182;2023-02-15T01:57:25;2.40;99.90
17066;DHT22;23120;52.336;21.182;2023-02-15T01:59:56;2.40;99.90
17066;DHT22;23120;52.336;21.182;2023-02-15T02:02:27;2.40;99.90
17066;DHT22;23120;52.336;21.182;2023-02-15T02:04:56;2.40;99.90
17066;DHT22;23120;52.336;21.182;2023-02-15T02:07:27;2.40;99.90
17066;DHT22;23120;52.336;21.182;2023-02-15T02:09:55;2.40;99.90
17066;DHT22;23120;52.336;21.182;2023-02-15T02:12:23;2.40;99.90
17066;DHT22;23120;52.336;21.182;2023-02-15T02:14:51;2.50;99.90
17066;DHT22;23120;52.336;21.182;2023-02-15T02:17:25;2.50;99.90
17066;DHT22;23120;52.336;21.182;2023-02-15T02:20:15;2.50;99.90
17066;DHT22;23120;52.336;21.182;2023-02-15T02:23:08;2.50;99.90
17066;DHT22;23120;52.336;21.182;2023-02-15T02:26:06;2.50;99.90
17066;DHT22;23120;52.336;21.182;2023-02-15T02:31:43;2.50;99.90
17066;DHT22;23120;52.336;21.182;2023-02-15T02:34:17;2.50;99.90
17066;DHT22;23120;52.336;21.182;2023-02-15T02:36:51;2.50;99.90
17066;DHT22;23120;52.336;21.182;2023-02-15T02:39:28;2.50;99.90
17066;DHT22;23120;52.336;21.182;2023-02-15T02:42:02;2.60;99.90
17066;DHT22;23120;52.336;21.182;2023-02-15T02:44:39;2.50;99.90
17066;DHT22;23120;52.336;21.182;2023-02-15T02:47:11;2.60;99.90
17066;DHT22;23120;52.336;21.182;2023-02-15T02:49:43;2.60;99.90
17066;DHT22;23120;52.336;21.182;2023-02-15T02:52:33;2.60;99.90
17066;DHT22;23120;52.336;21.182;2023-02-15T02:55:01;2.60;99.90
17066;DHT22;23120;52.336;21.182;2023-02-15T02:57:32;2.60;99.90
17066;DHT22;23120;52.336;21.182;2023-02-15T02:59:59;2.60;99.90
17066;DHT22;23120;52.336;21.182;2023-02-15T03:02:32;2.60;99.90
17066;DHT22;23120;52.336;21.182;2023-02-15T03:05:05;2.60;99.90
17066;DHT22;23120;52.336;21.182;2023-02-15T03:07:35;2.60;99.90
17066;DHT22;23120;52.336;21.182;2023-02-15T03:10:05;2.60;99.90
17066;DHT22;23120;52.336;21.182;2023-02-15T03:12:34;2.60;99.90
17066;DHT22;23120;52.336;21.182;2023-02-15T03:15:05;2.60;99.90
17066;DHT22;23120;52.336;21.182;2023-02-15T03:17:35;2.60;99.90
17066;DHT22;23120;52.336;21.182;2023-02-15T03:20:07;2.60;99.90
17066;DHT22;23120;52.336;21.182;2023-02-15T03:22:37;2.60;99.90
17066;DHT22;23120;52.336;21.182;2023-02-15T03:25:11;2.60;99.90
17066;DHT22;23120;52.336;21.182;2023-02-15T03:27:41;2.70;99.90
17066;DHT22;23120;52.336;21.182;2023-02-15T03:30:11;2.60;99.90
17066;DHT22;23120;52.336;21.182;2023-02-15T03:32:41;2.60;99.90
17066;DHT22;23120;52.336;21.182;2023-02-15T03:35:11;2.70;99.90
17066;DHT22;23120;52.336;21.182;2023-02-15T03:37:40;2.70;99.90
17066;DHT22;23120;52.336;21.182;2023-02-15T03:40:11;2.70;99.90
17066;DHT22;23120;52.336;21.182;2023-02-15T03:43:04;2.70;99.90
17066;DHT22;23120;52.336;21.182;2023-02-15T03:45:35;2.70;99.90
17066;DHT22;23120;52.336;21.182;2023-02-15T03:48:22;2.70;99.90
17066;DHT22;23120;52.336;21.182;2023-02-15T03:50:52;2.70;99.90
17066;DHT22;23120;52.336;21.182;2023-02-15T03:53:40;2.70;99.90
17066;DHT22;23120;52.336;21.182;2023-02-15T03:56:07;2.70;99.90
17066;DHT22;23120;52.336;21.182;2023-02-15T03:58:34;2.70;99.90
17066;DHT22;23120;52.336;21.182;2023-02-15T04:01:25;2.70;99.90
17066;DHT22;23120;52.336;21.182;2023-02-15T04:04:17;2.70;99.90
17066;DHT22;23120;52.336;21.182;2023-02-15T04:06:46;2.70;99.90
17066;DHT22;23120;52.336;21.182;2023-02-15T04:09:14;2.70;99.90
17066;DHT22;23120;52.336;21.182;2023-02-15T04:11:58;2.70;99.90
17066;DHT22;23120;52.336;21.182;2023-02-15T04:14:25;2.70;99.90
17066;DHT22;23120;52.336;21.182;2023-02-15T04:17:10;2.70;99.90
17066;DHT22;23120;52.336;21.182;2023-02-15T04:19:36;2.70;99.90
17066;DHT22;23120;52.336;21.182;2023-02-15T04:22:22;2.70;99.90
17066;DHT22;23120;52.336;21.182;2023-02-15T04:25:07;2.70;99.90
17066;DHT22;23120;52.336;21.182;2023-02-15T04:27:38;2.80;99.90
17066;DHT22;23120;52.336;21.182;2023-02-15T04:30:05;2.80;99.90
17066;DHT22;23120;52.336;21.182;2023-02-15T04:32:33;2.80;99.90
17066;DHT22;23120;52.336;21.182;2023-02-15T04:34:59;2.80;99.90
17066;DHT22;23120;52.336;21.182;2023-02-15T04:37:28;2.80;99.90
17066;DHT22;23120;52.336;21.182;2023-02-15T04:39:54;2.80;99.90
17066;DHT22;23120;52.336;21.182;2023-02-15T04:42:24;2.80;99.90
17066;DHT22;23120;52.336;21.182;2023-02-15T04:44:51;2.80;99.90
17066;DHT22;23120;52.336;21.182;2023-02-15T04:47:17;2.80;99.90
17066;DHT22;23120;52.336;21.182;2023-02-15T04:49:44;2.80;99.90
17066;DHT22;23120;52.336;21.182;2023-02-15T04:52:11;2.80;99.90
17066;DHT22;23120;52.336;21.182;2023-02-15T04:54:39;2.80;99.90
17066;DHT22;23120;52.336;21.182;2023-02-15T04:57:07;2.80;99.90
17066;DHT22;23120;52.336;21.182;2023-02-15T04:59:33;2.80;99.90
17066;DHT22;23120;52.336;21.182;2023-02-15T05:02:00;2.80;99.90
17066;DHT22;23120;52.336;21.182;2023-02-15T05:04:27;2.80;99.90
17066;DHT22;23120;52.336;21.182;2023-02-15T05:06:54;2.80;99.90
17066;DHT22;23120;52.336;21.182;2023-02-15T05:09:21;2.80;99.90
17066;DHT22;23120;52.336;21.182;2023-02-15T05:11:49;2.80;99.90
17066;DHT22;23120;52.336;21.182;2023-02-15T05:14:16;2.80;99.90
17066;DHT22;23120;52.336;21.182;2023-02-15T05:16:43;2.90;99.90
17066;DHT22;23120;52.336;21.182;2023-02-15T05:19:10;2.90;99.90
17066;DHT22;23120;52.336;21.182;2023-02-15T05:21:36;2.80;99.90
17066;DHT22;23120;52.336;21.182;2023-02-15T05:24:04;2.90;99.90
17066;DHT22;23120;52.336;21.182;2023-02-15T05:26:53;2.90;99.90
17066;DHT22;23120;52.336;21.182;2023-02-15T05:29:37;2.90;99.90
17066;DHT22;23120;52.336;21.182;2023-02-15T05:32:04;2.90;99.90
17066;DHT22;23120;52.336;21.182;2023-02-15T05:34:31;3.00;99.90
17066;DHT22;23120;52.336;21.182;2023-02-15T05:36:57;2.90;99.90
17066;DHT22;23120;52.336;21.182;2023-02-15T05:39:24;2.90;99.90
17066;DHT22;23120;52.336;21.182;2023-02-15T05:41:53;2.90;99.90
17066;DHT22;23120;52.336;21.182;2023-02-15T05:44:19;3.00;99.90
17066;DHT22;23120;52.336;21.182;2023-02-15T05:46:46;3.00;99.90
17066;DHT22;23120;52.336;21.182;2023-02-15T05:49:13;2.90;99.90
17066;DHT22;23120;52.336;21.182;2023-02-15T05:51:40;3.00;99.90
17066;DHT22;23120;52.336;21.182;2023-02-15T05:54:06;3.00;99.90
17066;DHT22;23120;52.336;21.182;2023-02-15T05:56:33;3.00;99.90
17066;DHT22;23120;52.336;21.182;2023-02-15T05:59:01;3.00;99.90
17066;DHT22;23120;52.336;21.182;2023-02-15T06:01:28;3.00;99.90
17066;DHT22;23120;52.336;21.182;2023-02-15T06:03:55;3.00;99.90
17066;DHT22;23120;52.336;21.182;2023-02-15T06:06:22;3.00;99.90
17066;DHT22;23120;52.336;21.182;2023-02-15T06:08:49;3.00;99.90
17066;DHT22;23120;52.336;21.182;2023-02-15T06:11:16;3.00;99.90
17066;DHT22;23120;52.336;21.182;2023-02-15T06:13:43;3.00;99.90
17066;DHT22;23120;52.336;21.182;2023-02-15T06:16:11;3.00;99.90
17066;DHT22;23120;52.336;21.182;2023-02-15T06:18:38;3.00;99.90
17066;DHT22;23120;52.336;21.182;2023-02-15T06:21:05;3.00;99.90
17066;DHT22;23120;52.336;21.182;2023-02-15T06:23:31;3.10;99.90
17066;DHT22;23120;52.336;21.182;2023-02-15T06:25:58;3.00;99.90
17066;DHT22;23120;52.336;21.182;2023-02-15T06:28:25;3.10;99.90
17066;DHT22;23120;52.336;21.182;2023-02-15T06:30:52;3.10;99.90
17066;DHT22;23120;52.336;21.182;2023-02-15T06:33:23;3.10;99.90
17066;DHT22;23120;52.336;21.182;2023-02-15T06:35:50;3.10;99.90
17066;DHT22;23120;52.336;21.182;2023-02-15T06:38:17;3.10;99.90
17066;DHT22;23120;52.336;21.182;2023-02-15T06:40:44;3.10;99.90
17066;DHT22;23120;52.336;21.182;2023-02-15T06:43:11;3.10;99.90
17066;DHT22;23120;52.336;21.182;2023-02-15T06:45:38;3.10;99.90
17066;DHT22;23120;52.336;21.182;2023-02-15T06:48:05;3.20;99.90
17066;DHT22;23120;52.336;21.182;2023-02-15T06:50:35;3.10;99.90
17066;DHT22;23120;52.336;21.182;2023-02-15T06:53:01;3.10;99.90
17066;DHT22;23120;52.336;21.182;2023-02-15T06:55:28;3.10;99.90
17066;DHT22;23120;52.336;21.182;2023-02-15T06:57:55;3.20;99.90
17066;DHT22;23120;52.336;21.182;2023-02-15T07:00:22;3.20;99.90
17066;DHT22;23120;52.336;21.182;2023-02-15T07:02:53;3.20;99.90
17066;DHT22;23120;52.336;21.182;2023-02-15T07:05:21;3.20;99.90
17066;DHT22;23120;52.336;21.182;2023-02-15T07:07:50;3.20;99.90
17066;DHT22;23120;52.336;21.182;2023-02-15T07:10:17;3.20;99.90
17066;DHT22;23120;52.336;21.182;2023-02-15T07:12:43;3.20;99.90
17066;DHT22;23120;52.336;21.182;2023-02-15T07:15:11;3.20;99.90
17066;DHT22;23120;52.336;21.182;2023-02-15T07:17:38;3.20;99.90
17066;DHT22;23120;52.336;21.182;2023-02-15T07:20:08;3.20;99.90
17066;DHT22;23120;52.336;21.182;2023-02-15T07:22:36;3.20;99.90
17066;DHT22;23120;52.336;21.182;2023-02-15T07:25:05;3.20;99.90
17066;DHT22;23120;52.336;21.182;2023-02-15T07:27:32;3.20;99.90
17066;DHT22;23120;52.336;21.182;2023-02-15T07:29:59;3.30;99.90
17066;DHT22;23120;52.336;21.182;2023-02-15T07:32:28;3.30;99.90
17066;DHT22;23120;52.336;21.182;2023-02-15T07:34:54;3.30;99.90
17066;DHT22;23120;52.336;21.182;2023-02-15T07:37:22;3.30;99.90
17066;DHT22;23120;52.336;21.182;2023-02-15T07:39:49;3.20;99.90
17066;DHT22;23120;52.336;21.182;2023-02-15T07:42:17;3.30;99.90
17066;DHT22;23120;52.336;21.182;2023-02-15T07:44:46;3.30;99.90
17066;DHT22;23120;52.336;21.182;2023-02-15T07:47:13;3.30;99.90
17066;DHT22;23120;52.336;21.182;2023-02-15T07:49:39;3.30;99.90
17066;DHT22;23120;52.336;21.182;2023-02-15T07:52:06;3.30;99.90
17066;DHT22;23120;52.336;21.182;2023-02-15T07:54:33;3.30;99.90
17066;DHT22;23120;52.336;21.182;2023-02-15T07:57:00;3.30;99.90
17066;DHT22;23120;52.336;21.182;2023-02-15T07:59:29;3.40;99.90
17066;DHT22;23120;52.336;21.182;2023-02-15T08:01:56;3.40;99.90
17066;DHT22;23120;52.336;21.182;2023-02-15T08:04:23;3.40;99.90
17066;DHT22;23120;52.336;21.182;2023-02-15T08:06:52;3.40;99.90
17066;DHT22;23120;52.336;21.182;2023-02-15T08:09:19;3.40;99.90
17066;DHT22;23120;52.336;21.182;2023-02-15T08:11:47;3.40;99.90
17066;DHT22;23120;52.336;21.182;2023-02-15T08:14:15;3.40;99.90
17066;DHT22;23120;52.336;21.182;2023-02-15T08:16:48;3.40;99.90
17066;DHT22;23120;52.336;21.182;2023-02-15T08:19:17;3.40;99.90
17066;DHT22;23120;52.336;21.182;2023-02-15T08:21:47;3.40;99.90
17066;DHT22;23120;52.336;21.182;2023-02-15T08:24:16;3.50;99.90
17066;DHT22;23120;52.336;21.182;2023-02-15T08:26:43;3.50;99.90
17066;DHT22;23120;52.336;21.182;2023-02-15T08:29:12;3.50;99.90
17066;DHT22;23120;52.336;21.182;2023-02-15T08:31:39;3.50;99.90
17066;DHT22;23120;52.336;21.182;2023-02-15T08:34:09;3.50;99.90
17066;DHT22;23120;52.336;21.182;2023-02-15T08:36:37;3.50;99.90
17066;DHT22;23120;52.336;21.182;2023-02-15T08:39:05;3.50;99.90
17066;DHT22;23120;52.336;21.182;2023-02-15T08:41:33;3.50;99.90
17066;DHT22;23120;52.336;21.182;2023-02-15T08:44:03;3.50;99.90
17066;DHT22;23120;52.336;21.182;2023-02-15T08:46:32;3.50;99.90
17066;DHT22;23120;52.336;21.182;2023-02-15T08:48:59;3.50;99.90
17066;DHT22;23120;52.336;21.182;2023-02-15T08:51:29;3.60;99.90
17066;DHT22;23120;52.336;21.182;2023-02-15T08:53:59;3.50;99.90
17066;DHT22;23120;52.336;21.182;2023-02-15T08:56:28;3.50;99.90
17066;DHT22;23120;52.336;21.182;2023-02-15T08:58:55;3.60;99.90
17066;DHT22;23120;52.336;21.182;2023-02-15T09:01:24;3.60;99.90
17066;DHT22;23120;52.336;21.182;2023-02-15T09:03:55;3.60;99.90
17066;DHT22;23120;52.336;21.182;2023-02-15T09:06:23;3.60;99.90
17066;DHT22;23120;52.336;21.182;2023-02-15T09:08:51;3.60;99.90
17066;DHT22;23120;52.336;21.182;2023-02-15T09:11:20;3.60;99.90
17066;DHT22;23120;52.336;21.182;2023-02-15T09:13:49;3.60;99.90
17066;DHT22;23120;52.336;21.182;2023-02-15T09:16:17;3.60;99.90
17066;DHT22;23120;52.336;21.182;2023-02-15T09:18:45;3.60;99.90
17066;DHT22;23120;52.336;21.182;2023-02-15T09:21:13;3.60;99.90
17066;DHT22;23120;52.336;21.182;2023-02-15T09:23:40;3.70;99.90
17066;DHT22;23120;52.336;21.182;2023-02-15T09:26:10;3.70;99.90
17066;DHT22;23120;52.336;21.182;2023-02-15T09:28:38;3.70;99.90
17066;DHT22;23120;52.336;21.182;2023-02-15T09:31:10;3.70;99.90
17066;DHT22;23120;52.336;21.182;2023-02-15T09:33:38;3.70;99.90
17066;DHT22;23120;52.336;21.182;2023-02-15T09:36:13;3.70;99.90
17066;DHT22;23120;52.336;21.182;2023-02-15T09:38:40;3.70;99.90
17066;DHT22;23120;52.336;21.182;2023-02-15T09:41:26;3.70;99.90
17066;DHT22;23120;52.336;21.182;2023-02-15T09:44:00;3.80;99.90
17066;DHT22;23120;52.336;21.182;2023-02-15T09:46:50;3.80;99.90
17066;DHT22;23120;52.336;21.182;2023-02-15T09:49:30;3.80;99.90
17066;DHT22;23120;52.336;21.182;2023-02-15T09:52:18;3.80;99.90
17066;DHT22;23120;52.336;21.182;2023-02-15T09:55:01;3.80;99.90
17066;DHT22;23120;52.336;21.182;2023-02-15T09:57:40;3.80;99.90
17066;DHT22;23120;52.336;21.182;2023-02-15T10:00:23;3.80;99.90
17066;DHT22;23120;52.336;21.182;2023-02-15T10:03:13;3.80;99.90
17066;DHT22;23120;52.336;21.182;2023-02-15T10:05:50;3.90;99.90
17066;DHT22;23120;52.336;21.182;2023-02-15T10:08:47;3.90;99.90
17066;DHT22;23120;52.336;21.182;2023-02-15T10:11:20;3.90;99.90
17066;DHT22;23120;52.336;21.182;2023-02-15T10:14:28;3.90;99.90
17066;DHT22;23120;52.336;21.182;2023-02-15T10:17:12;3.90;99.90
17066;DHT22;23120;52.336;21.182;2023-02-15T10:19:47;3.90;99.90
17066;DHT22;23120;52.336;21.182;2023-02-15T10:22:26;3.90;99.90
17066;DHT22;23120;52.336;21.182;2023-02-15T10:25:07;3.90;99.90
17066;DHT22;23120;52.336;21.182;2023-02-15T10:27:45;4.00;99.90
17066;DHT22;23120;52.336;21.182;2023-02-15T10:30:14;4.00;99.90
17066;DHT22;23120;52.336;21.182;2023-02-15T10:32:52;4.00;99.90
17066;DHT22;23120;52.336;21.182;2023-02-15T10:35:25;4.00;99.90
17066;DHT22;23120;52.336;21.182;2023-02-15T10:38:06;4.00;99.90
17066;DHT22;23120;52.336;21.182;2023-02-15T10:40:44;4.00;99.90
17066;DHT22;23120;52.336;21.182;2023-02-15T10:43:24;4.10;99.90
17066;DHT22;23120;52.336;21.182;2023-02-15T10:46:04;4.00;99.90
17066;DHT22;23120;52.336;21.182;2023-02-15T10:51:46;4.10;99.90
17066;DHT22;23120;52.336;21.182;2023-02-15T10:54:21;4.10;99.90
17066;DHT22;23120;52.336;21.182;2023-02-15T10:56:59;4.10;99.90
17066;DHT22;23120;52.336;21.182;2023-02-15T10:59:43;4.10;99.90
17066;DHT22;23120;52.336;21.182;2023-02-15T11:02:21;4.10;99.90
17066;DHT22;23120;52.336;21.182;2023-02-15T11:04:57;4.10;99.90
17066;DHT22;23120;52.336;21.182;2023-02-15T11:07:29;4.10;99.90
17066;DHT22;23120;52.336;21.182;2023-02-15T11:10:05;4.10;99.90
17066;DHT22;23120;52.336;21.182;2023-02-15T11:12:34;4.10;99.90
17066;DHT22;23120;52.336;21.182;2023-02-15T11:15:04;4.10;99.90
17066;DHT22;23120;52.336;21.182;2023-02-15T11:17:39;4.10;99.90
17066;DHT22;23120;52.336;21.182;2023-02-15T11:20:15;4.10;99.90
17066;DHT22;23120;52.336;21.182;2023-02-15T11:22:48;4.10;99.90
17066;DHT22;23120;52.336;21.182;2023-02-15T11:25:19;4.10;99.90
17066;DHT22;23120;52.336;21.182;2023-02-15T11:27:49;4.10;99.90
17066;DHT22;23120;52.336;21.182;2023-02-15T11:30:20;4.10;99.90
17066;DHT22;23120;52.336;21.182;2023-02-15T11:32:50;4.10;99.90
17066;DHT22;23120;52.336;21.182;2023-02-15T11:35:24;4.10;99.90
17066;DHT22;23120;52.336;21.182;2023-02-15T11:37:57;4.10;99.90
17066;DHT22;23120;52.336;21.182;2023-02-15T11:40:27;4.10;99.90
17066;DHT22;23120;52.336;21.182;2023-02-15T11:42:56;4.10;99.90
17066;DHT22;23120;52.336;21.182;2023-02-15T11:45:28;4.10;99.90
17066;DHT22;23120;52.336;21.182;2023-02-15T11:47:57;4.10;99.90
17066;DHT22;23120;52.336;21.182;2023-02-15T11:50:27;4.10;99.90
17066;DHT22;23120;52.336;21.182;2023-02-15T11:52:58;4.10;99.90
17066;DHT22;23120;52.336;21.182;2023-02-15T11:55:27;4.20;99.90
17066;DHT22;23120;52.336;21.182;2023-02-15T11:57:57;4.20;99.90
17066;DHT22;23120;52.336;21.182;2023-02-15T12:00:32;4.20;99.90
17066;DHT22;23120;52.336;21.182;2023-02-15T12:03:09;4.20;99.90
17066;DHT22;23120;52.336;21.182;2023-02-15T12:05:39;4.10;99.90
17066;DHT22;23120;52.336;21.182;2023-02-15T12:08:13;4.10;99.90
17066;DHT22;23120;52.336;21.182;2023-02-15T12:10:49;4.10;99.90
17066;DHT22;23120;52.336;21.182;2023-02-15T12:13:20;4.10;99.90
17066;DHT22;23120;52.336;21.182;2023-02-15T12:15:49;4.10;99.90
17066;DHT22;23120;52.336;21.182;2023-02-15T12:18:31;4.10;99.90
17066;DHT22;23120;52.336;21.182;2023-02-15T12:21:03;4.10;99.90
17066;DHT22;23120;52.336;21.182;2023-02-15T12:23:32;4.10;99.90
17066;DHT22;23120;52.336;21.182;2023-02-15T12:25:59;4.10;99.90
17066;DHT22;23120;52.336;21.182;2023-02-15T12:28:31;4.10;99.90
17066;DHT22;23120;52.336;21.182;2023-02-15T12:31:00;4.10;99.90
17066;DHT22;23120;52.336;21.182;2023-02-15T12:33:30;4.10;99.90
17066;DHT22;23120;52.336;21.182;2023-02-15T12:36:02;4.20;99.90
17066;DHT22;23120;52.336;21.182;2023-02-15T12:38:30;4.20;99.90
17066;DHT22;23120;52.336;21.182;2023-02-15T12:40:58;4.20;99.90
17066;DHT22;23120;52.336;21.182;2023-02-15T12:43:27;4.10;99.90
17066;DHT22;23120;52.336;21.182;2023-02-15T12:46:14;4.10;99.90
17066;DHT22;23120;52.336;21.182;2023-02-15T12:48:46;4.10;99.90
17066;DHT22;23120;52.336;21.182;2023-02-15T12:51:14;4.10;99.90
17066;DHT22;23120;52.336;21.182;2023-02-15T12:53:41;4.10;99.90
17066;DHT22;23120;52.336;21.182;2023-02-15T12:56:09;4.10;99.90
17066;DHT22;23120;52.336;21.182;2023-02-15T12:58:37;4.10;99.90
17066;DHT22;23120;52.336;21.182;2023-02-15T13:01:11;4.10;99.90
17066;DHT22;23120;52.336;21.182;2023-02-15T13:03:56;4.10;99.90
17066;DHT22;23120;52.336;21.182;2023-02-15T13:06:24;4.10;99.90
17066;DHT22;23120;52.336;21.182;2023-02-15T13:08:53;4.10;99.90
17066;DHT22;23120;52.336;21.182;2023-02-15T13:11:24;4.10;99.90
17066;DHT22;23120;52.336;21.182;2023-02-15T13:13:55;4.10;99.90
17066;DHT22;23120;52.336;21.182;2023-02-15T13:16:29;4.10;99.90
17066;DHT22;23120;52.336;21.182;2023-02-15T13:19:03;4.10;99.90
17066;DHT22;23120;52.336;21.182;2023-02-15T13:21:35;4.10;99.90
17066;DHT22;23120;52.336;21.182;2023-02-15T13:24:06;4.10;99.90
17066;DHT22;23120;52.336;21.182;2023-02-15T13:26:34;4.20;99.90
17066;DHT22;23120;52.336;21.182;2023-02-15T13:29:07;4.10;99.90
17066;DHT22;23120;52.336;21.182;2023-02-15T13:31:35;4.10;99.90
17066;DHT22;23120;52.336;21.182;2023-02-15T13:34:10;4.10;99.90
17066;DHT22;23120;52.336;21.182;2023-02-15T13:36:44;4.10;99.90
17066;DHT22;23120;52.336;21.182;2023-02-15T13:39:22;4.10;99.90
17066;DHT22;23120;52.336;21.182;2023-02-15T13:41:58;4.10;99.90
17066;DHT22;23120;52.336;21.182;2023-02-15T13:44:42;4.20;99.90
17066;DHT22;23120;52.336;21.182;2023-02-15T13:47:17;4.10;99.90
17066;DHT22;23120;52.336;21.182;2023-02-15T13:50:00;4.10;99.90
17066;DHT22;23120;52.336;21.182;2023-02-15T13:52:34;4.10;99.90
17066;DHT22;23120;52.336;21.182;2023-02-15T13:55:31;4.10;99.90
17066;DHT22;23120;52.336;21.182;2023-02-15T13:58:27;4.10;99.90
17066;DHT22;23120;52.336;21.182;2023-02-15T14:01:07;4.00;99.90
17066;DHT22;23120;52.336;21.182;2023-02-15T14:04:06;4.10;99.90
17066;DHT22;23120;52.336;21.182;2023-02-15T14:07:00;4.10;99.90
17066;DHT22;23120;52.336;21.182;2023-02-15T14:09:40;4.10;99.90
17066;DHT22;23120;52.336;21.182;2023-02-15T14:12:24;4.10;99.90
17066;DHT22;23120;52.336;21.182;2023-02-15T14:15:11;4.00;99.90
17066;DHT22;23120;52.336;21.182;2023-02-15T14:17:49;4.10;99.90
17066;DHT22;23120;52.336;21.182;2023-02-15T14:20:23;4.00;99.90
17066;DHT22;23120;52.336;21.182;2023-02-15T14:22:57;4.00;99.90
17066;DHT22;23120;52.336;21.182;2023-02-15T14:25:31;4.10;99.90
17066;DHT22;23120;52.336;21.182;2023-02-15T14:28:04;4.00;99.90
17066;DHT22;23120;52.336;21.182;2023-02-15T14:30:34;4.00;99.90
17066;DHT22;23120;52.336;21.182;2023-02-15T14:33:06;4.00;99.90
17066;DHT22;23120;52.336;21.182;2023-02-15T14:35:34;4.00;99.90
17066;DHT22;23120;52.336;21.182;2023-02-15T14:38:07;4.00;99.90
17066;DHT22;23120;52.336;21.182;2023-02-15T14:40:44;4.00;99.90
17066;DHT22;23120;52.336;21.182;2023-02-15T14:43:37;4.00;99.90
17066;DHT22;23120;52.336;21.182;2023-02-15T14:46:11;4.00;99.90
17066;DHT22;23120;52.336;21.182;2023-02-15T14:48:46;4.00;99.90
17066;DHT22;23120;52.336;21.182;2023-02-15T14:51:53;4.00;99.90
17066;DHT22;23120;52.336;21.182;2023-02-15T14:54:55;3.90;99.90
17066;DHT22;23120;52.336;21.182;2023-02-15T14:57:31;4.00;99.90
17066;DHT22;23120;52.336;21.182;2023-02-15T14:59:59;3.90;99.90
17066;DHT22;23120;52.336;21.182;2023-02-15T15:02:42;4.00;99.90
17066;DHT22;23120;52.336;21.182;2023-02-15T15:05:16;3.90;99.90
17066;DHT22;23120;52.336;21.182;2023-02-15T15:07:47;3.90;99.90
17066;DHT22;23120;52.336;21.182;2023-02-15T15:10:41;3.90;99.90
17066;DHT22;23120;52.336;21.182;2023-02-15T15:13:51;3.90;99.90
17066;DHT22;23120;52.336;21.182;2023-02-15T15:16:48;3.90;99.90
17066;DHT22;23120;52.336;21.182;2023-02-15T15:22:34;3.90;99.90
17066;DHT22;23120;52.336;21.182;2023-02-15T15:25:03;3.90;99.90
17066;DHT22;23120;52.336;21.182;2023-02-15T15:27:42;3.90;99.90
17066;DHT22;23120;52.336;21.182;2023-02-15T15:33:46;3.80;99.90
17066;DHT22;23120;52.336;21.182;2023-02-15T15:36:56;3.80;99.90
17066;DHT22;23120;52.336;21.182;2023-02-15T15:40:00;3.80;99.90
17066;DHT22;23120;52.336;21.182;2023-02-15T15:42:33;3.80;99.90
17066;DHT22;23120;52.336;21.182;2023-02-15T15:45:27;3.80;99.90
17066;DHT22;23120;52.336;21.182;2023-02-15T15:48:12;3.80;99.90
17066;DHT22;23120;52.336;21.182;2023-02-15T15:50:42;3.70;99.90
17066;DHT22;23120;52.336;21.182;2023-02-15T15:53:20;3.90;99.90
17066;DHT22;23120;52.336;21.182;2023-02-15T15:55:49;3.80;99.90
17066;DHT22;23120;52.336;21.182;2023-02-15T15:58:18;3.90;99.90
17066;DHT22;23120;52.336;21.182;2023-02-15T16:00:49;3.90;99.90
17066;DHT22;23120;52.336;21.182;2023-02-15T16:03:22;3.90;99.90
17066;DHT22;23120;52.336;21.182;2023-02-15T16:05:49;3.90;99.90
17066;DHT22;23120;52.336;21.182;2023-02-15T16:08:26;3.90;99.90
17066;DHT22;23120;52.336;21.182;2023-02-15T16:10:54;3.90;99.90
17066;DHT22;23120;52.336;21.182;2023-02-15T16:13:21;3.80;99.90
17066;DHT22;23120;52.336;21.182;2023-02-15T16:15:51;3.80;99.90